createdAt,value
2023-09-08T00:03:22.121Z,6.60
2023-09-08T00:18:23.685Z,6.20
2023-09-08T00:33:25.303Z,5.97
2023-09-08T00:48:26.866Z,7.03
2023-09-08T01:03:28.531Z,6.07
2023-09-08T01:18:30.252Z,6.20
2023-09-08T01:33:31.806Z,6.17
2023-09-08T01:48:33.638Z,6.03
2023-09-08T02:03:35.327Z,6.37
2023-09-08T02:18:36.957Z,5.67
2023-09-08T02:33:38.809Z,6.77
2023-09-08T02:48:40.372Z,8.37
2023-09-08T03:03:41.928Z,5.90
2023-09-08T03:18:43.472Z,6.27
2023-09-08T03:33:45.103Z,7.17
2023-09-08T03:48:46.659Z,6.60
2023-09-08T04:03:48.164Z,7.17
2023-09-08T04:18:49.810Z,7.23
2023-09-08T04:33:51.524Z,7.80
2023-09-08T04:48:53.042Z,7.07
2023-09-08T05:03:54.631Z,7.97
2023-09-08T05:18:56.265Z,7.43
2023-09-08T05:33:57.800Z,7.43
2023-09-08T05:48:59.464Z,11.20
2023-09-08T06:04:01.156Z,9.83
2023-09-08T06:19:02.745Z,10.47
2023-09-08T06:34:04.380Z,12.00
2023-09-08T06:49:06.145Z,11.37
2023-09-08T07:04:07.757Z,11.83
2023-09-08T07:19:09.397Z,12.20
2023-09-08T07:34:11.172Z,11.17
2023-09-08T07:49:12.712Z,9.80
2023-09-08T08:04:14.350Z,12.50
2023-09-08T08:19:15.909Z,9.77
2023-09-08T08:34:17.406Z,8.43
2023-09-08T08:49:18.891Z,10.27
2023-09-08T09:04:20.454Z,12.83
2023-09-08T09:19:22.021Z,8.80
2023-09-08T09:34:23.554Z,8.57
2023-09-08T09:49:25.086Z,8.80
2023-09-08T10:04:26.597Z,13.17
2023-09-08T10:19:28.158Z,9.70
2023-09-08T10:34:29.761Z,8.73
2023-09-08T10:49:31.288Z,9.27
2023-09-08T11:04:32.914Z,9.63
2023-09-08T11:19:34.453Z,8.50
2023-09-08T11:34:35.959Z,13.97
2023-09-08T11:49:37.694Z,11.37
2023-09-08T12:04:39.202Z,13.07
2023-09-08T12:19:40.747Z,10.97
2023-09-08T12:34:42.235Z,10.93
2023-09-08T12:49:43.773Z,10.10
2023-09-08T13:04:45.306Z,10.37
2023-09-08T13:19:46.808Z,10.70
2023-09-08T13:34:48.324Z,11.97
2023-09-08T13:49:50.802Z,10.53
2023-09-08T14:04:55.842Z,8.77
2023-09-08T14:19:58.189Z,11.53
2023-09-08T14:34:59.707Z,8.70
2023-09-08T14:50:01.192Z,8.23
2023-09-08T15:05:02.710Z,9.73
2023-09-08T15:20:04.214Z,9.33
2023-09-08T15:35:05.738Z,11.83
2023-09-08T15:50:07.251Z,9.87
2023-09-08T16:05:08.934Z,9.10
2023-09-08T16:20:10.704Z,9.43
2023-09-08T16:35:12.257Z,10.27
2023-09-08T16:50:13.773Z,8.40
2023-09-08T17:05:15.277Z,9.37
2023-09-08T17:20:16.818Z,11.73
2023-09-08T17:35:18.438Z,11.20
2023-09-08T17:50:19.927Z,12.73
2023-09-08T18:05:21.442Z,11.17
2023-09-08T18:20:22.986Z,10.70
2023-09-08T18:35:24.511Z,9.93
2023-09-08T18:50:26.055Z,10.43
2023-09-08T19:05:27.564Z,9.50
2023-09-08T19:20:29.061Z,12.00
2023-09-08T19:35:30.557Z,10.83
2023-09-08T19:50:32.035Z,10.00
2023-09-08T20:05:33.533Z,11.90
2023-09-08T20:20:35.185Z,9.33
2023-09-08T20:35:36.694Z,12.23
2023-09-08T20:50:38.223Z,12.30
2023-09-08T21:05:39.846Z,9.77
2023-09-08T21:20:41.381Z,11.40
2023-09-08T21:35:42.869Z,9.47
2023-09-08T21:50:44.359Z,7.97
2023-09-08T22:05:45.902Z,8.63
2023-09-08T22:20:47.424Z,10.10
2023-09-08T22:35:48.980Z,10.10
2023-09-08T22:50:50.524Z,8.53
2023-09-08T23:05:52.003Z,8.43
2023-09-08T23:20:54.646Z,8.00
2023-09-08T23:35:56.133Z,9.67
2023-09-08T23:50:57.618Z,8.13
